sensor_id;sensor_type;location;lat;lon;timestamp;P1;durP1;ratioP1;P2;durP2;ratioP2
21192;SDS011;10754;51.106;7.164;2023-06-26T00:00:25;3.20;;;3.00;;
21192;SDS011;10754;51.106;7.164;2023-06-26T00:02:50;3.92;;;3.63;;
21192;SDS011;10754;51.106;7.164;2023-06-26T00:05:16;3.83;;;3.28;;
21192;SDS011;10754;51.106;7.164;2023-06-26T00:07:42;3.97;;;3.30;;
21192;SDS011;10754;51.106;7.164;2023-06-26T00:10:07;4.57;;;3.78;;
21192;SDS011;10754;51.106;7.164;2023-06-26T00:12:33;3.65;;;3.35;;
21192;SDS011;10754;51.106;7.164;2023-06-26T00:14:59;4.53;;;3.10;;
21192;SDS011;10754;51.106;7.164;2023-06-26T00:17:24;3.78;;;3.42;;
21192;SDS011;10754;51.106;7.164;2023-06-26T00:19:50;3.70;;;3.40;;
21192;SDS011;10754;51.106;7.164;2023-06-26T00:22:16;4.07;;;3.78;;
21192;SDS011;10754;51.106;7.164;2023-06-26T00:24:42;3.88;;;3.58;;
21192;SDS011;10754;51.106;7.164;2023-06-26T00:27:09;3.67;;;3.38;;
21192;SDS011;10754;51.106;7.164;2023-06-26T00:29:35;3.58;;;3.35;;
21192;SDS011;10754;51.106;7.164;2023-06-26T00:32:01;4.32;;;3.20;;
21192;SDS011;10754;51.106;7.164;2023-06-26T00:34:26;3.42;;;3.13;;
21192;SDS011;10754;51.106;7.164;2023-06-26T00:36:51;4.07;;;3.70;;
21192;SDS011;10754;51.106;7.164;2023-06-26T00:39:17;3.45;;;3.22;;
21192;SDS011;10754;51.106;7.164;2023-06-26T00:41:43;4.53;;;3.65;;
21192;SDS011;10754;51.106;7.164;2023-06-26T00:44:08;5.78;;;3.58;;
21192;SDS011;10754;51.106;7.164;2023-06-26T00:46:35;3.15;;;2.95;;
21192;SDS011;10754;51.106;7.164;2023-06-26T00:49:02;3.72;;;3.35;;
21192;SDS011;10754;51.106;7.164;2023-06-26T00:51:28;3.80;;;3.50;;
21192;SDS011;10754;51.106;7.164;2023-06-26T00:53:55;3.90;;;3.50;;
21192;SDS011;10754;51.106;7.164;2023-06-26T00:56:22;4.00;;;3.45;;
21192;SDS011;10754;51.106;7.164;2023-06-26T00:58:48;3.92;;;3.30;;
21192;SDS011;10754;51.106;7.164;2023-06-26T01:01:13;4.60;;;3.60;;
21192;SDS011;10754;51.106;7.164;2023-06-26T01:03:42;4.18;;;3.75;;
21192;SDS011;10754;51.106;7.164;2023-06-26T01:06:16;3.80;;;3.50;;
21192;SDS011;10754;51.106;7.164;2023-06-26T01:08:42;4.03;;;3.55;;
21192;SDS011;10754;51.106;7.164;2023-06-26T01:11:09;3.85;;;3.40;;
21192;SDS011;10754;51.106;7.164;2023-06-26T01:13:35;3.72;;;3.42;;
21192;SDS011;10754;51.106;7.164;2023-06-26T01:16:01;4.72;;;3.42;;
21192;SDS011;10754;51.106;7.164;2023-06-26T01:18:28;3.65;;;3.40;;
21192;SDS011;10754;51.106;7.164;2023-06-26T01:20:55;3.55;;;3.25;;
21192;SDS011;10754;51.106;7.164;2023-06-26T01:26:17;4.22;;;3.88;;
21192;SDS011;10754;51.106;7.164;2023-06-26T01:28:45;3.60;;;3.30;;
21192;SDS011;10754;51.106;7.164;2023-06-26T01:31:11;3.95;;;3.65;;
21192;SDS011;10754;51.106;7.164;2023-06-26T01:33:38;3.33;;;3.05;;
21192;SDS011;10754;51.106;7.164;2023-06-26T01:36:05;3.70;;;3.40;;
21192;SDS011;10754;51.106;7.164;2023-06-26T01:38:31;3.80;;;3.40;;
21192;SDS011;10754;51.106;7.164;2023-06-26T01:40:57;3.75;;;3.40;;
21192;SDS011;10754;51.106;7.164;2023-06-26T01:48:51;3.53;;;3.30;;
21192;SDS011;10754;51.106;7.164;2023-06-26T01:51:34;4.47;;;3.65;;
21192;SDS011;10754;51.106;7.164;2023-06-26T01:54:06;4.40;;;3.58;;
21192;SDS011;10754;51.106;7.164;2023-06-26T01:56:38;3.80;;;3.50;;
21192;SDS011;10754;51.106;7.164;2023-06-26T01:59:04;3.90;;;3.60;;
21192;SDS011;10754;51.106;7.164;2023-06-26T02:01:32;3.58;;;3.38;;
21192;SDS011;10754;51.106;7.164;2023-06-26T02:03:59;3.60;;;3.30;;
21192;SDS011;10754;51.106;7.164;2023-06-26T02:06:24;3.75;;;3.45;;
21192;SDS011;10754;51.106;7.164;2023-06-26T02:08:50;4.00;;;3.70;;
21192;SDS011;10754;51.106;7.164;2023-06-26T02:11:16;4.22;;;3.55;;
21192;SDS011;10754;51.106;7.164;2023-06-26T02:13:41;3.92;;;3.63;;
21192;SDS011;10754;51.106;7.164;2023-06-26T02:16:07;3.80;;;3.50;;
21192;SDS011;10754;51.106;7.164;2023-06-26T02:18:32;3.67;;;3.38;;
21192;SDS011;10754;51.106;7.164;2023-06-26T02:20:57;3.67;;;3.38;;
21192;SDS011;10754;51.106;7.164;2023-06-26T02:23:23;4.95;;;4.00;;
21192;SDS011;10754;51.106;7.164;2023-06-26T02:25:48;4.60;;;3.47;;
21192;SDS011;10754;51.106;7.164;2023-06-26T02:28:14;4.80;;;3.85;;
21192;SDS011;10754;51.106;7.164;2023-06-26T02:30:39;3.38;;;3.17;;
21192;SDS011;10754;51.106;7.164;2023-06-26T02:33:05;3.80;;;3.38;;
21192;SDS011;10754;51.106;7.164;2023-06-26T02:35:30;3.83;;;3.60;;
21192;SDS011;10754;51.106;7.164;2023-06-26T02:37:57;3.85;;;3.50;;
21192;SDS011;10754;51.106;7.164;2023-06-26T02:40:23;3.95;;;3.65;;
21192;SDS011;10754;51.106;7.164;2023-06-26T02:42:48;5.32;;;3.60;;
21192;SDS011;10754;51.106;7.164;2023-06-26T02:45:14;4.15;;;3.85;;
21192;SDS011;10754;51.106;7.164;2023-06-26T02:47:39;4.40;;;4.00;;
21192;SDS011;10754;51.106;7.164;2023-06-26T02:50:06;4.13;;;3.83;;
21192;SDS011;10754;51.106;7.164;2023-06-26T02:52:32;4.15;;;3.85;;
21192;SDS011;10754;51.106;7.164;2023-06-26T02:54:57;3.97;;;3.67;;
21192;SDS011;10754;51.106;7.164;2023-06-26T02:57:23;3.75;;;3.45;;
21192;SDS011;10754;51.106;7.164;2023-06-26T02:59:48;4.07;;;3.78;;
21192;SDS011;10754;51.106;7.164;2023-06-26T03:02:14;4.03;;;3.72;;
21192;SDS011;10754;51.106;7.164;2023-06-26T03:04:39;3.72;;;3.42;;
21192;SDS011;10754;51.106;7.164;2023-06-26T03:07:05;4.20;;;3.85;;
21192;SDS011;10754;51.106;7.164;2023-06-26T03:09:30;3.95;;;3.63;;
21192;SDS011;10754;51.106;7.164;2023-06-26T03:11:56;4.00;;;3.70;;
21192;SDS011;10754;51.106;7.164;2023-06-26T03:14:21;3.95;;;3.65;;
21192;SDS011;10754;51.106;7.164;2023-06-26T03:16:47;4.65;;;4.00;;
21192;SDS011;10754;51.106;7.164;2023-06-26T03:19:12;5.03;;;3.58;;
21192;SDS011;10754;51.106;7.164;2023-06-26T03:21:38;3.80;;;3.50;;
21192;SDS011;10754;51.106;7.164;2023-06-26T03:24:04;4.03;;;3.63;;
21192;SDS011;10754;51.106;7.164;2023-06-26T03:26:30;3.67;;;3.40;;
21192;SDS011;10754;51.106;7.164;2023-06-26T03:28:55;3.85;;;3.55;;
21192;SDS011;10754;51.106;7.164;2023-06-26T03:31:21;3.88;;;3.58;;
21192;SDS011;10754;51.106;7.164;2023-06-26T03:33:47;4.18;;;3.88;;
21192;SDS011;10754;51.106;7.164;2023-06-26T03:36:12;3.60;;;3.15;;
21192;SDS011;10754;51.106;7.164;2023-06-26T03:38:38;5.30;;;3.60;;
21192;SDS011;10754;51.106;7.164;2023-06-26T03:41:03;3.72;;;3.42;;
21192;SDS011;10754;51.106;7.164;2023-06-26T03:43:29;4.03;;;3.58;;
21192;SDS011;10754;51.106;7.164;2023-06-26T03:45:54;4.45;;;4.05;;
21192;SDS011;10754;51.106;7.164;2023-06-26T03:48:20;3.83;;;3.53;;
21192;SDS011;10754;51.106;7.164;2023-06-26T03:50:45;3.53;;;3.33;;
21192;SDS011;10754;51.106;7.164;2023-06-26T03:53:11;4.07;;;3.78;;
21192;SDS011;10754;51.106;7.164;2023-06-26T03:55:37;3.80;;;3.50;;
21192;SDS011;10754;51.106;7.164;2023-06-26T03:58:03;3.72;;;3.47;;
21192;SDS011;10754;51.106;7.164;2023-06-26T04:00:29;4.25;;;3.95;;
21192;SDS011;10754;51.106;7.164;2023-06-26T04:02:55;3.97;;;3.58;;
21192;SDS011;10754;51.106;7.164;2023-06-26T04:05:20;4.25;;;3.92;;
21192;SDS011;10754;51.106;7.164;2023-06-26T04:07:46;3.88;;;3.58;;
21192;SDS011;10754;51.106;7.164;2023-06-26T04:10:15;4.05;;;3.75;;
21192;SDS011;10754;51.106;7.164;2023-06-26T04:12:40;4.15;;;3.85;;
21192;SDS011;10754;51.106;7.164;2023-06-26T04:15:06;6.13;;;4.03;;
21192;SDS011;10754;51.106;7.164;2023-06-26T04:17:32;3.85;;;3.30;;
21192;SDS011;10754;51.106;7.164;2023-06-26T04:19:58;5.95;;;3.72;;
21192;SDS011;10754;51.106;7.164;2023-06-26T04:22:23;4.22;;;3.92;;
21192;SDS011;10754;51.106;7.164;2023-06-26T04:24:50;4.05;;;3.67;;
21192;SDS011;10754;51.106;7.164;2023-06-26T04:27:15;4.35;;;3.95;;
21192;SDS011;10754;51.106;7.164;2023-06-26T04:29:41;4.43;;;4.07;;
21192;SDS011;10754;51.106;7.164;2023-06-26T04:32:07;4.50;;;4.03;;
21192;SDS011;10754;51.106;7.164;2023-06-26T04:34:32;3.90;;;3.60;;
21192;SDS011;10754;51.106;7.164;2023-06-26T04:37:00;4.25;;;3.85;;
21192;SDS011;10754;51.106;7.164;2023-06-26T04:39:28;3.95;;;3.65;;
21192;SDS011;10754;51.106;7.164;2023-06-26T04:41:55;4.50;;;3.65;;
21192;SDS011;10754;51.106;7.164;2023-06-26T04:44:20;4.53;;;4.13;;
21192;SDS011;10754;51.106;7.164;2023-06-26T04:46:46;3.92;;;3.63;;
21192;SDS011;10754;51.106;7.164;2023-06-26T04:49:11;4.30;;;3.90;;
21192;SDS011;10754;51.106;7.164;2023-06-26T04:51:37;4.55;;;3.70;;
21192;SDS011;10754;51.106;7.164;2023-06-26T04:54:08;4.57;;;4.18;;
21192;SDS011;10754;51.106;7.164;2023-06-26T04:56:34;3.97;;;3.58;;
21192;SDS011;10754;51.106;7.164;2023-06-26T04:59:00;3.55;;;3.25;;
21192;SDS011;10754;51.106;7.164;2023-06-26T05:01:26;4.38;;;3.78;;
21192;SDS011;10754;51.106;7.164;2023-06-26T05:03:54;4.28;;;3.63;;
21192;SDS011;10754;51.106;7.164;2023-06-26T05:06:25;3.97;;;3.67;;
21192;SDS011;10754;51.106;7.164;2023-06-26T05:08:51;5.40;;;3.90;;
21192;SDS011;10754;51.106;7.164;2023-06-26T05:11:16;6.35;;;3.85;;
21192;SDS011;10754;51.106;7.164;2023-06-26T05:13:42;4.13;;;3.60;;
21192;SDS011;10754;51.106;7.164;2023-06-26T05:16:08;4.70;;;4.15;;
21192;SDS011;10754;51.106;7.164;2023-06-26T05:18:34;4.20;;;3.80;;
21192;SDS011;10754;51.106;7.164;2023-06-26T05:21:03;4.50;;;3.95;;
21192;SDS011;10754;51.106;7.164;2023-06-26T05:23:32;4.05;;;3.53;;
21192;SDS011;10754;51.106;7.164;2023-06-26T05:25:59;4.20;;;3.80;;
21192;SDS011;10754;51.106;7.164;2023-06-26T05:28:28;5.50;;;3.58;;
21192;SDS011;10754;51.106;7.164;2023-06-26T05:30:56;4.53;;;3.38;;
21192;SDS011;10754;51.106;7.164;2023-06-26T05:33:23;4.07;;;3.67;;
21192;SDS011;10754;51.106;7.164;2023-06-26T05:35:50;3.75;;;3.45;;
21192;SDS011;10754;51.106;7.164;2023-06-26T05:38:17;3.40;;;3.10;;
21192;SDS011;10754;51.106;7.164;2023-06-26T05:40:43;5.05;;;3.70;;
21192;SDS011;10754;51.106;7.164;2023-06-26T05:43:09;4.80;;;3.22;;
21192;SDS011;10754;51.106;7.164;2023-06-26T05:45:35;3.75;;;3.40;;
21192;SDS011;10754;51.106;7.164;2023-06-26T05:48:01;3.40;;;3.10;;
21192;SDS011;10754;51.106;7.164;2023-06-26T05:50:27;3.33;;;3.08;;
21192;SDS011;10754;51.106;7.164;2023-06-26T05:52:53;3.38;;;3.05;;
21192;SDS011;10754;51.106;7.164;2023-06-26T05:55:19;3.88;;;2.83;;
21192;SDS011;10754;51.106;7.164;2023-06-26T05:57:45;8.38;;;3.65;;
21192;SDS011;10754;51.106;7.164;2023-06-26T06:00:12;3.70;;;2.97;;
21192;SDS011;10754;51.106;7.164;2023-06-26T06:02:38;3.25;;;2.95;;
21192;SDS011;10754;51.106;7.164;2023-06-26T06:05:05;3.50;;;3.20;;
21192;SDS011;10754;51.106;7.164;2023-06-26T06:07:31;3.05;;;2.85;;
21192;SDS011;10754;51.106;7.164;2023-06-26T06:09:57;3.83;;;3.00;;
21192;SDS011;10754;51.106;7.164;2023-06-26T06:12:23;4.57;;;3.45;;
21192;SDS011;10754;51.106;7.164;2023-06-26T06:14:48;5.35;;;3.17;;
21192;SDS011;10754;51.106;7.164;2023-06-26T06:17:14;3.45;;;2.78;;
21192;SDS011;10754;51.106;7.164;2023-06-26T06:19:39;3.35;;;2.97;;
21192;SDS011;10754;51.106;7.164;2023-06-26T06:22:05;3.75;;;3.35;;
21192;SDS011;10754;51.106;7.164;2023-06-26T06:24:31;5.00;;;3.25;;
21192;SDS011;10754;51.106;7.164;2023-06-26T06:26:56;4.00;;;3.15;;
21192;SDS011;10754;51.106;7.164;2023-06-26T06:29:22;4.50;;;3.33;;
21192;SDS011;10754;51.106;7.164;2023-06-26T06:31:47;4.43;;;3.50;;
21192;SDS011;10754;51.106;7.164;2023-06-26T06:34:13;3.95;;;3.40;;
21192;SDS011;10754;51.106;7.164;2023-06-26T06:36:39;4.50;;;3.58;;
21192;SDS011;10754;51.106;7.164;2023-06-26T06:39:04;3.50;;;3.20;;
21192;SDS011;10754;51.106;7.164;2023-06-26T06:41:30;4.05;;;2.95;;
21192;SDS011;10754;51.106;7.164;2023-06-26T06:43:55;3.90;;;3.28;;
21192;SDS011;10754;51.106;7.164;2023-06-26T06:46:21;4.82;;;3.10;;
21192;SDS011;10754;51.106;7.164;2023-06-26T06:48:46;2.92;;;2.72;;
21192;SDS011;10754;51.106;7.164;2023-06-26T06:51:12;4.22;;;2.90;;
21192;SDS011;10754;51.106;7.164;2023-06-26T06:53:38;4.15;;;3.13;;
21192;SDS011;10754;51.106;7.164;2023-06-26T06:56:03;4.00;;;3.45;;
21192;SDS011;10754;51.106;7.164;2023-06-26T06:58:29;3.83;;;2.92;;
21192;SDS011;10754;51.106;7.164;2023-06-26T07:00:58;4.85;;;3.30;;
21192;SDS011;10754;51.106;7.164;2023-06-26T07:03:24;5.47;;;3.10;;
21192;SDS011;10754;51.106;7.164;2023-06-26T07:05:49;3.45;;;3.15;;
21192;SDS011;10754;51.106;7.164;2023-06-26T07:08:15;5.40;;;3.50;;
21192;SDS011;10754;51.106;7.164;2023-06-26T07:10:41;4.60;;;2.80;;
21192;SDS011;10754;51.106;7.164;2023-06-26T07:13:06;3.72;;;3.00;;
21192;SDS011;10754;51.106;7.164;2023-06-26T07:15:32;3.72;;;3.10;;
21192;SDS011;10754;51.106;7.164;2023-06-26T07:17:57;4.10;;;2.88;;
21192;SDS011;10754;51.106;7.164;2023-06-26T07:20:23;4.78;;;3.25;;
21192;SDS011;10754;51.106;7.164;2023-06-26T07:22:49;3.38;;;2.95;;
21192;SDS011;10754;51.106;7.164;2023-06-26T07:25:15;8.13;;;3.97;;
21192;SDS011;10754;51.106;7.164;2023-06-26T07:27:41;4.18;;;3.58;;
21192;SDS011;10754;51.106;7.164;2023-06-26T07:30:07;6.35;;;4.30;;
21192;SDS011;10754;51.106;7.164;2023-06-26T07:32:36;6.63;;;3.60;;
21192;SDS011;10754;51.106;7.164;2023-06-26T07:35:02;4.00;;;3.42;;
21192;SDS011;10754;51.106;7.164;2023-06-26T07:37:28;3.97;;;2.97;;
21192;SDS011;10754;51.106;7.164;2023-06-26T07:39:54;3.90;;;3.30;;
21192;SDS011;10754;51.106;7.164;2023-06-26T07:42:19;3.35;;;3.05;;
21192;SDS011;10754;51.106;7.164;2023-06-26T07:44:45;4.68;;;3.50;;
21192;SDS011;10754;51.106;7.164;2023-06-26T07:47:11;7.28;;;3.70;;
21192;SDS011;10754;51.106;7.164;2023-06-26T07:49:36;4.40;;;3.08;;
21192;SDS011;10754;51.106;7.164;2023-06-26T07:52:04;6.03;;;2.67;;
21192;SDS011;10754;51.106;7.164;2023-06-26T07:54:30;6.00;;;3.05;;
21192;SDS011;10754;51.106;7.164;2023-06-26T07:56:56;4.82;;;3.47;;
21192;SDS011;10754;51.106;7.164;2023-06-26T07:59:27;4.20;;;3.20;;
21192;SDS011;10754;51.106;7.164;2023-06-26T08:01:54;7.82;;;3.05;;
21192;SDS011;10754;51.106;7.164;2023-06-26T08:04:22;5.10;;;2.90;;
21192;SDS011;10754;51.106;7.164;2023-06-26T08:06:56;5.38;;;3.35;;
21192;SDS011;10754;51.106;7.164;2023-06-26T08:09:25;5.13;;;3.00;;
21192;SDS011;10754;51.106;7.164;2023-06-26T08:11:51;4.38;;;2.80;;
21192;SDS011;10754;51.106;7.164;2023-06-26T08:14:18;3.17;;;2.63;;
21192;SDS011;10754;51.106;7.164;2023-06-26T08:16:44;4.32;;;2.92;;
21192;SDS011;10754;51.106;7.164;2023-06-26T08:19:14;5.88;;;2.80;;
21192;SDS011;10754;51.106;7.164;2023-06-26T08:21:40;6.15;;;3.05;;
21192;SDS011;10754;51.106;7.164;2023-06-26T08:24:06;8.65;;;3.20;;
21192;SDS011;10754;51.106;7.164;2023-06-26T08:26:34;4.60;;;3.33;;
21192;SDS011;10754;51.106;7.164;2023-06-26T08:29:00;3.97;;;3.42;;
21192;SDS011;10754;51.106;7.164;2023-06-26T08:31:25;4.20;;;3.25;;
21192;SDS011;10754;51.106;7.164;2023-06-26T08:33:51;5.22;;;3.28;;
21192;SDS011;10754;51.106;7.164;2023-06-26T08:36:17;4.55;;;3.20;;
21192;SDS011;10754;51.106;7.164;2023-06-26T08:38:42;6.07;;;3.28;;
21192;SDS011;10754;51.106;7.164;2023-06-26T08:41:08;6.28;;;3.38;;
21192;SDS011;10754;51.106;7.164;2023-06-26T08:43:34;5.07;;;3.50;;
21192;SDS011;10754;51.106;7.164;2023-06-26T08:46:00;4.38;;;3.42;;
21192;SDS011;10754;51.106;7.164;2023-06-26T08:48:26;6.03;;;3.30;;
21192;SDS011;10754;51.106;7.164;2023-06-26T08:50:57;7.90;;;3.55;;
21192;SDS011;10754;51.106;7.164;2023-06-26T08:53:33;5.80;;;3.47;;
21192;SDS011;10754;51.106;7.164;2023-06-26T08:56:12;5.00;;;3.25;;
21192;SDS011;10754;51.106;7.164;2023-06-26T08:58:42;7.30;;;3.13;;
21192;SDS011;10754;51.106;7.164;2023-06-26T09:01:07;7.32;;;3.65;;
21192;SDS011;10754;51.106;7.164;2023-06-26T09:03:33;4.20;;;3.33;;
21192;SDS011;10754;51.106;7.164;2023-06-26T09:06:00;4.38;;;2.90;;
21192;SDS011;10754;51.106;7.164;2023-06-26T09:08:25;4.78;;;2.85;;
21192;SDS011;10754;51.106;7.164;2023-06-26T09:10:51;5.32;;;3.30;;
21192;SDS011;10754;51.106;7.164;2023-06-26T09:13:17;5.53;;;2.88;;
21192;SDS011;10754;51.106;7.164;2023-06-26T09:15:44;4.68;;;2.60;;
21192;SDS011;10754;51.106;7.164;2023-06-26T09:18:10;6.18;;;2.70;;
21192;SDS011;10754;51.106;7.164;2023-06-26T09:20:36;5.22;;;2.95;;
21192;SDS011;10754;51.106;7.164;2023-06-26T09:23:02;5.20;;;2.60;;
21192;SDS011;10754;51.106;7.164;2023-06-26T09:25:28;4.93;;;2.78;;
21192;SDS011;10754;51.106;7.164;2023-06-26T09:27:54;5.78;;;2.83;;
21192;SDS011;10754;51.106;7.164;2023-06-26T09:30:21;5.25;;;2.88;;
21192;SDS011;10754;51.106;7.164;2023-06-26T09:32:46;5.78;;;2.97;;
21192;SDS011;10754;51.106;7.164;2023-06-26T09:35:12;5.03;;;2.85;;
21192;SDS011;10754;51.106;7.164;2023-06-26T09:37:38;4.28;;;2.55;;
21192;SDS011;10754;51.106;7.164;2023-06-26T09:40:04;4.70;;;2.65;;
21192;SDS011;10754;51.106;7.164;2023-06-26T09:42:30;6.03;;;3.00;;
21192;SDS011;10754;51.106;7.164;2023-06-26T09:44:56;3.72;;;2.80;;
21192;SDS011;10754;51.106;7.164;2023-06-26T09:47:22;5.25;;;3.20;;
21192;SDS011;10754;51.106;7.164;2023-06-26T09:49:48;3.85;;;2.70;;
21192;SDS011;10754;51.106;7.164;2023-06-26T09:52:15;4.57;;;2.70;;
21192;SDS011;10754;51.106;7.164;2023-06-26T09:54:41;5.30;;;3.03;;
21192;SDS011;10754;51.106;7.164;2023-06-26T09:57:10;3.13;;;2.38;;
21192;SDS011;10754;51.106;7.164;2023-06-26T09:59:41;7.78;;;3.35;;
21192;SDS011;10754;51.106;7.164;2023-06-26T10:02:07;4.32;;;2.60;;
21192;SDS011;10754;51.106;7.164;2023-06-26T10:04:34;5.78;;;3.15;;
21192;SDS011;10754;51.106;7.164;2023-06-26T10:07:01;4.28;;;2.40;;
21192;SDS011;10754;51.106;7.164;2023-06-26T10:09:29;4.55;;;2.65;;
21192;SDS011;10754;51.106;7.164;2023-06-26T10:11:57;3.00;;;2.40;;
21192;SDS011;10754;51.106;7.164;2023-06-26T10:14:36;5.35;;;2.53;;
21192;SDS011;10754;51.106;7.164;2023-06-26T10:17:06;8.52;;;2.67;;
21192;SDS011;10754;51.106;7.164;2023-06-26T10:19:34;6.38;;;2.10;;
21192;SDS011;10754;51.106;7.164;2023-06-26T10:22:01;3.17;;;2.50;;
21192;SDS011;10754;51.106;7.164;2023-06-26T10:24:28;7.13;;;2.90;;
21192;SDS011;10754;51.106;7.164;2023-06-26T10:29:43;5.00;;;1.95;;
21192;SDS011;10754;51.106;7.164;2023-06-26T10:32:16;5.65;;;2.17;;
21192;SDS011;10754;51.106;7.164;2023-06-26T10:34:43;3.13;;;2.00;;
21192;SDS011;10754;51.106;7.164;2023-06-26T10:37:09;3.45;;;2.00;;
21192;SDS011;10754;51.106;7.164;2023-06-26T10:39:47;4.10;;;2.22;;
21192;SDS011;10754;51.106;7.164;2023-06-26T10:42:19;2.70;;;1.90;;
21192;SDS011;10754;51.106;7.164;2023-06-26T10:44:58;4.25;;;2.20;;
21192;SDS011;10754;51.106;7.164;2023-06-26T10:47:48;3.90;;;1.85;;
21192;SDS011;10754;51.106;7.164;2023-06-26T10:50:17;3.53;;;1.92;;
21192;SDS011;10754;51.106;7.164;2023-06-26T10:55:34;2.80;;;2.00;;
21192;SDS011;10754;51.106;7.164;2023-06-26T10:58:01;3.67;;;1.65;;
21192;SDS011;10754;51.106;7.164;2023-06-26T11:00:27;3.88;;;2.40;;
21192;SDS011;10754;51.106;7.164;2023-06-26T11:02:53;3.20;;;1.83;;
21192;SDS011;10754;51.106;7.164;2023-06-26T11:05:29;2.13;;;1.60;;
21192;SDS011;10754;51.106;7.164;2023-06-26T11:08:04;2.85;;;1.77;;
21192;SDS011;10754;51.106;7.164;2023-06-26T11:10:47;3.97;;;2.08;;
21192;SDS011;10754;51.106;7.164;2023-06-26T11:13:17;3.78;;;2.15;;
21192;SDS011;10754;51.106;7.164;2023-06-26T11:15:44;3.63;;;1.83;;
21192;SDS011;10754;51.106;7.164;2023-06-26T11:18:10;4.20;;;1.95;;
21192;SDS011;10754;51.106;7.164;2023-06-26T11:20:36;4.10;;;2.45;;
21192;SDS011;10754;51.106;7.164;2023-06-26T11:23:03;6.82;;;2.55;;
21192;SDS011;10754;51.106;7.164;2023-06-26T11:25:32;3.42;;;1.88;;
21192;SDS011;10754;51.106;7.164;2023-06-26T11:28:03;3.45;;;1.58;;
21192;SDS011;10754;51.106;7.164;2023-06-26T11:30:30;2.80;;;1.45;;
21192;SDS011;10754;51.106;7.164;2023-06-26T11:33:09;2.90;;;1.48;;
21192;SDS011;10754;51.106;7.164;2023-06-26T11:35:35;4.93;;;1.58;;
21192;SDS011;10754;51.106;7.164;2023-06-26T11:38:02;2.58;;;1.55;;
21192;SDS011;10754;51.106;7.164;2023-06-26T11:40:34;2.42;;;1.40;;
21192;SDS011;10754;51.106;7.164;2023-06-26T11:43:01;3.42;;;1.60;;
21192;SDS011;10754;51.106;7.164;2023-06-26T11:45:28;6.10;;;1.30;;
21192;SDS011;10754;51.106;7.164;2023-06-26T11:47:55;2.20;;;1.20;;
21192;SDS011;10754;51.106;7.164;2023-06-26T11:50:22;3.60;;;1.23;;
21192;SDS011;10754;51.106;7.164;2023-06-26T11:52:54;2.25;;;1.20;;
21192;SDS011;10754;51.106;7.164;2023-06-26T11:55:21;4.32;;;1.60;;
21192;SDS011;10754;51.106;7.164;2023-06-26T11:57:48;3.90;;;1.58;;
21192;SDS011;10754;51.106;7.164;2023-06-26T12:00:15;2.22;;;1.25;;
21192;SDS011;10754;51.106;7.164;2023-06-26T12:02:42;2.53;;;1.50;;
21192;SDS011;10754;51.106;7.164;2023-06-26T12:05:11;3.53;;;1.00;;
21192;SDS011;10754;51.106;7.164;2023-06-26T12:07:46;2.80;;;0.88;;
21192;SDS011;10754;51.106;7.164;2023-06-26T12:10:13;2.25;;;1.08;;
21192;SDS011;10754;51.106;7.164;2023-06-26T12:12:39;3.47;;;1.20;;
21192;SDS011;10754;51.106;7.164;2023-06-26T12:15:06;2.70;;;1.10;;
21192;SDS011;10754;51.106;7.164;2023-06-26T12:17:33;2.15;;;1.10;;
21192;SDS011;10754;51.106;7.164;2023-06-26T12:20:02;1.45;;;0.80;;
21192;SDS011;10754;51.106;7.164;2023-06-26T12:22:34;1.77;;;0.90;;
21192;SDS011;10754;51.106;7.164;2023-06-26T12:25:00;2.80;;;1.10;;
21192;SDS011;10754;51.106;7.164;2023-06-26T12:27:26;5.60;;;1.23;;
21192;SDS011;10754;51.106;7.164;2023-06-26T12:29:53;2.50;;;0.82;;
21192;SDS011;10754;51.106;7.164;2023-06-26T12:32:19;1.35;;;1.20;;
21192;SDS011;10754;51.106;7.164;2023-06-26T12:34:48;2.13;;;0.98;;
21192;SDS011;10754;51.106;7.164;2023-06-26T12:37:15;1.38;;;0.90;;
21192;SDS011;10754;51.106;7.164;2023-06-26T12:42:14;3.22;;;0.95;;
21192;SDS011;10754;51.106;7.164;2023-06-26T12:44:41;1.92;;;0.98;;
21192;SDS011;10754;51.106;7.164;2023-06-26T12:47:06;1.75;;;0.98;;
21192;SDS011;10754;51.106;7.164;2023-06-26T12:49:39;2.95;;;1.23;;
21192;SDS011;10754;51.106;7.164;2023-06-26T12:52:07;5.25;;;1.23;;
21192;SDS011;10754;51.106;7.164;2023-06-26T12:54:34;2.80;;;1.50;;
21192;SDS011;10754;51.106;7.164;2023-06-26T12:57:00;3.15;;;1.10;;
21192;SDS011;10754;51.106;7.164;2023-06-26T12:59:26;3.45;;;1.13;;
21192;SDS011;10754;51.106;7.164;2023-06-26T13:01:51;2.88;;;1.00;;
21192;SDS011;10754;51.106;7.164;2023-06-26T13:04:18;1.42;;;0.90;;
21192;SDS011;10754;51.106;7.164;2023-06-26T13:06:44;2.53;;;0.82;;
21192;SDS011;10754;51.106;7.164;2023-06-26T13:09:09;3.60;;;1.17;;
21192;SDS011;10754;51.106;7.164;2023-06-26T13:11:36;1.40;;;0.90;;
21192;SDS011;10754;51.106;7.164;2023-06-26T13:14:02;2.15;;;0.95;;
21192;SDS011;10754;51.106;7.164;2023-06-26T13:16:28;2.28;;;0.90;;
21192;SDS011;10754;51.106;7.164;2023-06-26T13:18:54;1.98;;;0.80;;
21192;SDS011;10754;51.106;7.164;2023-06-26T13:21:20;2.05;;;0.85;;
21192;SDS011;10754;51.106;7.164;2023-06-26T13:23:46;0.85;;;0.55;;
21192;SDS011;10754;51.106;7.164;2023-06-26T13:26:12;3.33;;;1.00;;
21192;SDS011;10754;51.106;7.164;2023-06-26T13:28:37;1.63;;;0.70;;
21192;SDS011;10754;51.106;7.164;2023-06-26T13:31:03;1.88;;;0.73;;
21192;SDS011;10754;51.106;7.164;2023-06-26T13:33:32;3.25;;;0.82;;
21192;SDS011;10754;51.106;7.164;2023-06-26T13:35:58;2.60;;;0.63;;
21192;SDS011;10754;51.106;7.164;2023-06-26T13:38:24;2.47;;;0.80;;
21192;SDS011;10754;51.106;7.164;2023-06-26T13:40:53;2.95;;;0.80;;
21192;SDS011;10754;51.106;7.164;2023-06-26T13:43:20;3.35;;;0.90;;
21192;SDS011;10754;51.106;7.164;2023-06-26T13:45:47;3.00;;;0.80;;
21192;SDS011;10754;51.106;7.164;2023-06-26T13:48:13;1.13;;;0.63;;
21192;SDS011;10754;51.106;7.164;2023-06-26T13:50:38;3.03;;;0.70;;
21192;SDS011;10754;51.106;7.164;2023-06-26T13:53:04;2.25;;;1.00;;
21192;SDS011;10754;51.106;7.164;2023-06-26T13:55:29;2.72;;;0.80;;
21192;SDS011;10754;51.106;7.164;2023-06-26T13:57:56;3.50;;;0.80;;
21192;SDS011;10754;51.106;7.164;2023-06-26T14:00:21;1.95;;;0.85;;
21192;SDS011;10754;51.106;7.164;2023-06-26T14:02:50;1.30;;;0.55;;
21192;SDS011;10754;51.106;7.164;2023-06-26T14:05:16;2.13;;;0.65;;
21192;SDS011;10754;51.106;7.164;2023-06-26T14:07:46;4.57;;;1.05;;
21192;SDS011;10754;51.106;7.164;2023-06-26T14:10:12;3.75;;;0.70;;
21192;SDS011;10754;51.106;7.164;2023-06-26T14:12:38;1.17;;;0.80;;
21192;SDS011;10754;51.106;7.164;2023-06-26T14:15:04;1.40;;;0.70;;
21192;SDS011;10754;51.106;7.164;2023-06-26T14:17:30;2.33;;;0.90;;
21192;SDS011;10754;51.106;7.164;2023-06-26T14:19:56;1.27;;;0.75;;
21192;SDS011;10754;51.106;7.164;2023-06-26T14:22:22;1.88;;;0.70;;
21192;SDS011;10754;51.106;7.164;2023-06-26T14:24:48;1.17;;;0.60;;
21192;SDS011;10754;51.106;7.164;2023-06-26T14:27:14;1.65;;;0.70;;
21192;SDS011;10754;51.106;7.164;2023-06-26T14:29:39;2.35;;;1.00;;
21192;SDS011;10754;51.106;7.164;2023-06-26T14:32:05;2.30;;;0.70;;
21192;SDS011;10754;51.106;7.164;2023-06-26T14:34:31;1.40;;;0.60;;
21192;SDS011;10754;51.106;7.164;2023-06-26T14:36:57;1.67;;;0.70;;
21192;SDS011;10754;51.106;7.164;2023-06-26T14:39:22;1.13;;;0.50;;
21192;SDS011;10754;51.106;7.164;2023-06-26T14:41:48;1.95;;;0.68;;
21192;SDS011;10754;51.106;7.164;2023-06-26T14:44:14;1.23;;;0.63;;
21192;SDS011;10754;51.106;7.164;2023-06-26T14:46:40;4.13;;;1.02;;
21192;SDS011;10754;51.106;7.164;2023-06-26T14:49:05;2.40;;;0.95;;
21192;SDS011;10754;51.106;7.164;2023-06-26T14:51:31;3.08;;;0.90;;
21192;SDS011;10754;51.106;7.164;2023-06-26T14:53:57;3.00;;;1.00;;
21192;SDS011;10754;51.106;7.164;2023-06-26T14:56:22;2.40;;;1.00;;
21192;SDS011;10754;51.106;7.164;2023-06-26T14:58:48;3.10;;;1.23;;
21192;SDS011;10754;51.106;7.164;2023-06-26T15:01:14;2.05;;;0.70;;